Santa Fe, Brazil
Current Conditions -  °F | °C
As of 7:00 PM on Tuesday 21 Oct 2014 (Local Time) from SBMG Reporting Station
Few Clouds Few Clouds  
Wind Chill: 82°   Ceiling: Unl
Heat Index: 82°   Visibility: 6mi
Dew Point: 59°   Wind: 10mph
Humidity: 45%   Direction: 150°SSE
Pressure: 30"   Gusts: NA
Location:  23.04°S, 51.81°W
Report Text: SBMG 212100Z 15009KT 9999 FEW049 28/15 Q1016
Loading
Personal Weather Stations






























Interactive Weather Map
Tropical Storm Tracking
New forecast layout! Learn more

10-Day Weather Forecast

Advertisements
Track Severe Weather on mobile